Time;durP1;ratioP1;P1;durP2;ratioP2;P2;SDS_P1;SDS_P2;PMS_P1;PMS_P2;Temp;Humidity;BMP_temperature;BMP_pressure;BME280_temperature;BME280_humidity;BME280_pressure;Samples;Min_cycle;Max_cycle;Signal;HPM_P1;HPM_P2
2021/06/09 00:00:51;;;;;;;1.27;0.40;;;10.10;99.90;;;;;;5051133;28;20475;-85
2021/06/09 00:03:20;;;;;;;1.52;0.35;;;10.10;99.90;;;;;;5050868;28;20392;-85
2021/06/09 00:05:49;;;;;;;0.22;0.17;;;10.10;99.90;;;;;;5051096;28;20400;-86
2021/06/09 00:08:17;;;;;;;2.58;0.25;;;10.20;99.90;;;;;;5071198;28;20383;-84
2021/06/09 00:10:45;;;;;;;0.40;0.20;;;10.40;99.90;;;;;;5070940;28;20868;-85
2021/06/09 00:13:12;;;;;;;2.50;0.30;;;10.60;99.90;;;;;;5070977;28;20370;-85
2021/06/09 00:15:39;;;;;;;0.50;0.30;;;10.90;99.90;;;;;;5071091;28;20370;-85
2021/06/09 00:18:05;;;;;;;0.35;0.20;;;11.30;99.90;;;;;;5070595;28;20428;-83
2021/06/09 00:20:32;;;;;;;0.68;0.20;;;12.00;99.90;;;;;;5070310;28;20409;-82
2021/06/09 00:23:00;;;;;;;0.43;0.20;;;12.30;99.90;;;;;;5070575;28;21004;-83
2021/06/09 00:25:27;;;;;;;0.38;0.20;;;12.40;99.90;;;;;;5068693;28;20393;-84
2021/06/09 00:27:56;;;;;;;0.40;0.20;;;12.30;99.90;;;;;;5070257;28;20873;-84
2021/06/09 00:30:31;;;;;;;0.45;0.40;;;11.90;99.90;;;;;;5070148;28;20385;-83
2021/06/09 00:32:59;;;;;;;1.60;0.20;;;11.60;99.90;;;;;;5070389;28;20443;-84
2021/06/09 00:35:27;;;;;;;0.00;0.00;;;11.30;99.90;;;;;;5070721;28;20388;-84
2021/06/09 00:37:55;;;;;;;0.13;0.10;;;11.10;99.90;;;;;;5070541;28;20633;-83
2021/06/09 00:40:22;;;;;;;0.10;0.10;;;11.00;99.90;;;;;;5054672;28;20447;-82
2021/06/09 00:43:12;;;;;;;0.68;0.10;;;10.90;99.90;;;;;;5069872;28;20390;-83
2021/06/09 00:45:48;;;;;;;2.60;0.20;;;10.80;99.90;;;;;;5062055;28;20396;-83
2021/06/09 00:48:15;;;;;;;0.43;0.10;;;10.80;99.90;;;;;;5059603;28;20417;-84
2021/06/09 00:50:43;;;;;;;0.70;0.10;;;10.80;99.90;;;;;;5066836;28;20809;-83
2021/06/09 00:53:28;;;;;;;1.60;0.20;;;10.90;99.90;;;;;;5049918;28;20390;-82
2021/06/09 00:55:57;;;;;;;1.30;0.23;;;10.90;99.90;;;;;;5049875;28;20950;-84
2021/06/09 00:58:25;;;;;;;1.20;0.20;;;11.00;99.90;;;;;;5049821;28;20509;-83
2021/06/09 01:00:55;;;;;;;0.20;0.10;;;11.10;99.90;;;;;;5049709;28;20406;-83
2021/06/09 01:03:22;;;;;;;0.55;0.20;;;11.10;99.90;;;;;;5063883;28;20426;-84
2021/06/09 01:05:50;;;;;;;0.90;0.30;;;11.10;99.90;;;;;;5069777;28;20374;-84
2021/06/09 01:08:17;;;;;;;0.22;0.10;;;11.20;99.90;;;;;;5070028;28;20385;-84
2021/06/09 01:10:51;;;;;;;0.20;0.20;;;11.20;99.90;;;;;;5069433;28;20495;-84
2021/06/09 01:13:22;;;;;;;0.57;0.20;;;11.30;99.90;;;;;;5069295;28;20416;-84
2021/06/09 01:15:49;;;;;;;0.60;0.10;;;11.40;99.90;;;;;;5069288;28;20461;-83
2021/06/09 01:18:17;;;;;;;0.85;0.13;;;11.40;99.90;;;;;;5069100;28;20501;-82
2021/06/09 01:20:45;;;;;;;0.30;0.20;;;11.40;99.90;;;;;;5066742;28;20384;-84
2021/06/09 01:23:12;;;;;;;1.70;0.20;;;11.50;99.90;;;;;;5053480;28;20399;-83
2021/06/09 01:25:39;;;;;;;0.13;0.10;;;11.50;99.90;;;;;;5050033;28;20862;-84
2021/06/09 01:28:07;;;;;;;0.20;0.10;;;11.60;99.90;;;;;;5065129;28;20390;-83
2021/06/09 01:30:36;;;;;;;0.40;0.20;;;11.50;99.90;;;;;;5069164;28;20384;-83
2021/06/09 01:33:05;;;;;;;0.05;0.03;;;11.60;99.90;;;;;;5061023;28;20789;-85
2021/06/09 01:35:32;;;;;;;0.10;0.05;;;11.60;99.90;;;;;;5064907;28;20388;-85
2021/06/09 01:38:00;;;;;;;0.17;0.10;;;11.50;99.90;;;;;;5067317;28;20405;-84
2021/06/09 01:40:28;;;;;;;0.15;0.10;;;11.40;99.90;;;;;;5051338;28;20379;-83
2021/06/09 01:42:57;;;;;;;0.23;0.20;;;11.50;99.90;;;;;;5054649;28;20439;-84
2021/06/09 01:45:28;;;;;;;0.10;0.10;;;11.70;99.90;;;;;;5067437;28;20382;-85
2021/06/09 01:47:56;;;;;;;0.10;0.00;;;11.70;99.90;;;;;;5070947;28;20500;-83
2021/06/09 01:50:24;;;;;;;1.13;0.05;;;11.80;99.90;;;;;;5069222;28;20872;-85
2021/06/09 01:52:52;;;;;;;1.60;0.10;;;11.90;99.90;;;;;;5068635;28;20447;-85
2021/06/09 01:55:21;;;;;;;1.60;0.20;;;11.90;99.90;;;;;;5062807;28;20485;-87
2021/06/09 01:57:49;;;;;;;0.20;0.10;;;11.80;99.90;;;;;;5049444;28;20415;-83
2021/06/09 02:00:28;;;;;;;1.08;0.10;;;11.80;99.90;;;;;;5056955;28;20378;-87
2021/06/09 02:02:59;;;;;;;0.50;0.15;;;11.90;99.80;;;;;;5068982;28;20381;-85
2021/06/09 02:05:29;;;;;;;1.30;0.30;;;11.90;99.90;;;;;;5059444;28;20375;-87
2021/06/09 02:07:58;;;;;;;0.90;0.10;;;12.00;99.90;;;;;;5067027;28;20370;-86
2021/06/09 02:10:27;;;;;;;1.40;0.10;;;12.00;99.90;;;;;;5063475;28;20371;-86
2021/06/09 02:12:58;;;;;;;0.20;0.17;;;12.00;99.90;;;;;;5048657;28;20384;-84
2021/06/09 02:15:25;;;;;;;1.05;0.40;;;12.00;99.90;;;;;;5050139;28;20392;-88
2021/06/09 02:18:19;;;;;;;0.60;0.10;;;12.10;99.90;;;;;;5048892;28;20403;-85
2021/06/09 02:20:47;;;;;;;0.95;0.10;;;12.30;99.90;;;;;;5047943;28;20434;-87
2021/06/09 02:23:20;;;;;;;0.55;0.10;;;12.50;99.70;;;;;;5049261;28;20731;-84
2021/06/09 02:25:51;;;;;;;0.13;0.13;;;12.50;99.90;;;;;;5047219;28;20384;-86
2021/06/09 02:28:23;;;;;;;0.40;0.10;;;12.40;99.90;;;;;;5049019;28;20606;-87
2021/06/09 02:30:50;;;;;;;0.98;0.20;;;12.40;98.50;;;;;;5061223;28;20394;-87
2021/06/09 02:33:21;;;;;;;0.22;0.13;;;12.40;99.90;;;;;;5071331;28;20849;-85
2021/06/09 02:35:49;;;;;;;1.10;0.10;;;12.40;99.80;;;;;;5061407;28;20395;-86
2021/06/09 02:38:17;;;;;;;0.47;0.20;;;12.50;99.90;;;;;;5058649;28;20448;-87
2021/06/09 02:40:46;;;;;;;0.00;0.00;;;12.60;99.90;;;;;;5058643;28;21216;-87
2021/06/09 02:43:14;;;;;;;0.32;0.13;;;12.60;99.50;;;;;;5052817;28;20380;-86
2021/06/09 02:45:52;;;;;;;0.40;0.10;;;12.50;99.90;;;;;;5056322;28;20812;-86
2021/06/09 02:48:23;;;;;;;1.10;0.20;;;12.40;99.90;;;;;;5061882;28;20921;-87
2021/06/09 02:50:50;;;;;;;0.55;0.22;;;12.30;99.90;;;;;;5062118;28;20897;-86
2021/06/09 02:53:26;;;;;;;0.98;0.20;;;12.10;99.90;;;;;;5062258;28;20393;-86
2021/06/09 02:56:28;;;;;;;0.15;0.13;;;12.00;99.90;;;;;;5050493;28;20380;-86
2021/06/09 02:59:07;;;;;;;0.20;0.10;;;12.00;99.90;;;;;;5050080;28;20419;-87
2021/06/09 03:01:41;;;;;;;0.10;0.10;;;12.10;99.90;;;;;;5063181;28;20468;-85
2021/06/09 03:04:35;;;;;;;1.45;0.17;;;12.20;99.90;;;;;;5050854;28;20386;-85
2021/06/09 03:07:05;;;;;;;0.40;0.20;;;12.40;99.90;;;;;;5064101;28;21245;-86
2021/06/09 03:10:14;;;;;;;1.00;0.10;;;12.50;99.90;;;;;;5072565;28;20806;-87
2021/06/09 03:13:06;;;;;;;0.10;0.10;;;12.60;99.10;;;;;;5067989;28;20988;-86
2021/06/09 03:15:40;;;;;;;0.10;0.05;;;12.60;99.60;;;;;;5072217;28;20370;-86
2021/06/09 03:18:39;;;;;;;0.15;0.10;;;12.70;98.60;;;;;;5072787;28;20440;-85
2021/06/09 03:21:17;;;;;;;0.20;0.10;;;12.80;98.70;;;;;;5059652;28;20394;-86
2021/06/09 03:24:05;;;;;;;0.10;0.10;;;12.80;99.10;;;;;;5072223;28;20385;-84
2021/06/09 03:26:42;;;;;;;1.98;0.20;;;12.90;99.00;;;;;;5072263;28;20402;-84
2021/06/09 03:29:32;;;;;;;0.20;0.10;;;12.90;97.90;;;;;;5072288;28;20365;-83
2021/06/09 03:32:13;;;;;;;0.10;0.10;;;13.00;98.90;;;;;;5069621;28;20480;-87
2021/06/09 03:35:10;;;;;;;0.90;0.17;;;13.00;99.00;;;;;;5051936;28;20427;-85
2021/06/09 03:37:39;;;;;;;0.10;0.10;;;12.90;98.90;;;;;;5053253;28;20419;-85
2021/06/09 03:40:10;;;;;;;1.80;0.25;;;12.90;98.80;;;;;;5072356;28;20370;-85
2021/06/09 03:42:39;;;;;;;0.10;0.10;;;12.80;99.10;;;;;;5071407;28;20386;-85
2021/06/09 03:45:07;;;;;;;0.60;0.20;;;12.80;98.80;;;;;;5071686;28;20406;-87
2021/06/09 03:47:36;;;;;;;1.23;0.20;;;12.80;99.30;;;;;;5073794;28;20391;-82
2021/06/09 03:50:04;;;;;;;0.10;0.10;;;12.70;99.10;;;;;;5075116;28;20376;-86
2021/06/09 03:52:32;;;;;;;0.30;0.20;;;12.80;99.00;;;;;;5070980;28;20386;-86
2021/06/09 03:55:01;;;;;;;0.10;0.10;;;12.90;98.70;;;;;;5071485;28;20400;-83
2021/06/09 03:57:32;;;;;;;0.40;0.20;;;13.00;99.10;;;;;;5071637;28;20485;-85
2021/06/09 04:00:00;;;;;;;0.50;0.10;;;13.00;98.30;;;;;;5071497;28;20378;-85
2021/06/09 04:02:29;;;;;;;0.10;0.00;;;12.90;98.50;;;;;;5071140;28;20378;-86
2021/06/09 04:04:58;;;;;;;0.30;0.10;;;12.70;98.30;;;;;;5063604;28;20380;-85
2021/06/09 04:07:27;;;;;;;0.30;0.10;;;12.50;99.10;;;;;;5049976;28;20422;-84
2021/06/09 04:09:57;;;;;;;4.00;0.30;;;12.30;99.60;;;;;;5061508;28;20378;-85
2021/06/09 04:12:25;;;;;;;0.40;0.15;;;12.10;99.80;;;;;;5071103;28;20382;-86
2021/06/09 04:14:54;;;;;;;0.47;0.20;;;12.00;99.90;;;;;;5070129;28;20389;-85
2021/06/09 04:17:25;;;;;;;0.20;0.20;;;11.80;99.90;;;;;;5069709;28;22436;-87
2021/06/09 04:19:55;;;;;;;0.13;0.10;;;11.70;99.90;;;;;;5070785;28;20378;-84
2021/06/09 04:22:25;;;;;;;0.05;0.05;;;11.60;99.90;;;;;;5071400;28;20381;-84
2021/06/09 04:24:52;;;;;;;0.10;0.10;;;11.40;99.90;;;;;;5070918;28;20413;-87
2021/06/09 04:27:24;;;;;;;0.98;0.17;;;11.20;99.90;;;;;;5071172;28;20413;-86
2021/06/09 04:29:54;;;;;;;0.17;0.17;;;11.10;99.90;;;;;;5071374;28;20410;-86
2021/06/09 04:32:21;;;;;;;1.40;0.20;;;10.80;99.90;;;;;;5070485;28;20743;-83
2021/06/09 04:34:52;;;;;;;0.88;0.22;;;10.50;99.90;;;;;;5069955;28;20492;-85
2021/06/09 04:37:22;;;;;;;0.10;0.10;;;10.30;99.90;;;;;;5070422;28;20916;-85
2021/06/09 04:39:50;;;;;;;0.30;0.30;;;10.10;99.90;;;;;;5070427;28;20585;-84
2021/06/09 04:42:21;;;;;;;0.40;0.20;;;10.00;99.90;;;;;;5068454;28;20399;-84
2021/06/09 04:44:48;;;;;;;0.68;0.68;;;9.80;99.90;;;;;;5069938;28;20451;-86
2021/06/09 04:47:16;;;;;;;0.68;0.50;;;9.70;99.90;;;;;;5070701;28;20367;-87
2021/06/09 04:49:45;;;;;;;0.60;0.28;;;9.70;99.90;;;;;;5069075;28;20390;-87
2021/06/09 04:52:14;;;;;;;0.70;0.30;;;9.70;99.90;;;;;;5070501;28;20873;-87
2021/06/09 04:54:42;;;;;;;1.27;0.20;;;9.70;99.90;;;;;;5069544;28;20378;-86
2021/06/09 04:57:09;;;;;;;0.20;0.20;;;9.60;99.90;;;;;;5061920;28;20411;-85
2021/06/09 04:59:36;;;;;;;0.25;0.20;;;9.60;99.90;;;;;;5051501;28;20437;-86
2021/06/09 05:02:03;;;;;;;0.13;0.13;;;9.50;99.90;;;;;;5054389;28;20406;-86
2021/06/09 05:04:31;;;;;;;2.60;0.30;;;9.60;99.90;;;;;;5069877;28;20473;-86
2021/06/09 05:06:58;;;;;;;0.40;0.20;;;9.70;99.90;;;;;;5069480;28;20375;-86
2021/06/09 05:09:26;;;;;;;0.20;0.20;;;9.70;99.90;;;;;;5070047;28;21147;-85
2021/06/09 05:12:17;;;;;;;0.70;0.20;;;9.60;99.90;;;;;;5070057;28;20386;-88
2021/06/09 05:14:50;;;;;;;1.10;0.20;;;9.60;99.90;;;;;;5069889;28;20424;-86
2021/06/09 05:17:44;;;;;;;0.50;0.30;;;9.70;99.90;;;;;;5052351;28;20426;-85
2021/06/09 05:20:35;;;;;;;0.70;0.35;;;9.60;99.90;;;;;;5049746;28;20383;-85
2021/06/09 05:23:14;;;;;;;0.38;0.38;;;9.60;99.90;;;;;;5050027;28;20388;-86
2021/06/09 05:25:42;;;;;;;0.20;0.20;;;9.50;99.90;;;;;;5049600;28;20840;-86
2021/06/09 05:28:13;;;;;;;0.30;0.30;;;9.50;99.90;;;;;;5049769;28;20395;-87
2021/06/09 05:30:41;;;;;;;0.38;0.20;;;9.50;99.90;;;;;;5050709;28;20728;-84
2021/06/09 05:33:09;;;;;;;0.60;0.30;;;9.40;99.90;;;;;;5052301;28;20456;-85
2021/06/09 05:35:37;;;;;;;0.20;0.20;;;9.50;99.90;;;;;;5069546;28;20406;-85
2021/06/09 05:38:06;;;;;;;0.13;0.10;;;9.50;99.90;;;;;;5057220;28;20899;-86
2021/06/09 05:40:33;;;;;;;0.40;0.20;;;9.50;99.90;;;;;;5052997;28;20394;-88
2021/06/09 05:43:00;;;;;;;0.22;0.20;;;9.50;99.90;;;;;;5068054;28;20436;-88
2021/06/09 05:45:29;;;;;;;0.70;0.30;;;9.60;99.90;;;;;;5067253;28;20876;-86
2021/06/09 05:47:57;;;;;;;0.20;0.20;;;9.60;99.90;;;;;;5052076;28;20392;-86
2021/06/09 05:50:26;;;;;;;0.57;0.30;;;9.60;99.90;;;;;;5056521;28;20395;-88
2021/06/09 05:52:57;;;;;;;0.52;0.50;;;9.50;99.90;;;;;;5064176;28;20877;-87
2021/06/09 05:55:27;;;;;;;1.20;0.38;;;9.50;99.90;;;;;;5049317;28;20384;-86
2021/06/09 05:57:55;;;;;;;0.30;0.30;;;9.60;99.90;;;;;;5052764;28;20413;-84
2021/06/09 06:00:25;;;;;;;1.17;0.30;;;9.60;99.90;;;;;;5056178;28;20426;-86
2021/06/09 06:02:53;;;;;;;0.30;0.30;;;9.60;99.90;;;;;;5060214;28;20726;-85
2021/06/09 06:05:21;;;;;;;0.40;0.30;;;9.50;99.90;;;;;;5064021;28;20401;-85
2021/06/09 06:07:48;;;;;;;0.38;0.38;;;9.50;99.90;;;;;;5067547;28;20929;-87
2021/06/09 06:10:16;;;;;;;0.60;0.60;;;9.50;99.90;;;;;;5062602;28;20390;-87
2021/06/09 06:12:45;;;;;;;1.17;1.08;;;9.50;99.90;;;;;;5063765;28;20750;-85
2021/06/09 06:15:13;;;;;;;2.20;1.33;;;9.50;99.90;;;;;;5065484;28;20386;-85
2021/06/09 06:17:43;;;;;;;1.20;0.90;;;9.40;99.90;;;;;;5059964;28;20398;-84
2021/06/09 06:20:19;;;;;;;1.00;0.90;;;9.40;99.90;;;;;;5068534;28;20366;-86
2021/06/09 06:22:47;;;;;;;0.90;0.80;;;9.30;99.90;;;;;;5068477;28;20857;-85
2021/06/09 06:25:17;;;;;;;0.90;0.60;;;9.20;99.90;;;;;;5062184;28;20390;-85
2021/06/09 06:27:47;;;;;;;0.50;0.50;;;9.10;99.90;;;;;;5065282;28;20402;-87
2021/06/09 06:30:16;;;;;;;0.63;0.63;;;9.00;99.90;;;;;;5062837;28;20490;-84
2021/06/09 06:32:46;;;;;;;0.47;0.47;;;9.00;99.90;;;;;;5064621;28;20395;-86
2021/06/09 06:35:14;;;;;;;0.40;0.40;;;9.00;99.90;;;;;;5048355;28;20437;-87
2021/06/09 06:37:43;;;;;;;1.10;0.38;;;8.90;99.90;;;;;;5052231;28;20414;-83
2021/06/09 06:40:11;;;;;;;0.30;0.30;;;8.90;99.90;;;;;;5066286;28;20382;-86
2021/06/09 06:42:39;;;;;;;0.70;0.40;;;8.80;99.90;;;;;;5059868;28;20397;-87
2021/06/09 06:45:07;;;;;;;0.40;0.32;;;8.80;99.90;;;;;;5057231;28;20392;-89
2021/06/09 06:47:34;;;;;;;0.40;0.40;;;8.70;99.90;;;;;;5053537;28;20379;-86
2021/06/09 06:50:01;;;;;;;0.40;0.30;;;8.70;99.90;;;;;;5052620;28;20372;-88
2021/06/09 06:52:31;;;;;;;0.30;0.30;;;8.70;99.90;;;;;;5057938;28;20394;-86
2021/06/09 06:54:59;;;;;;;0.20;0.20;;;8.70;99.90;;;;;;5055463;28;20383;-86
2021/06/09 06:57:30;;;;;;;0.40;0.30;;;8.60;99.90;;;;;;5056935;28;20416;-87
2021/06/09 06:59:59;;;;;;;1.00;0.40;;;8.50;99.90;;;;;;5065029;28;20386;-87
2021/06/09 07:02:26;;;;;;;0.30;0.30;;;8.50;99.90;;;;;;5051676;28;20486;-88
2021/06/09 07:04:54;;;;;;;0.35;0.30;;;8.40;99.90;;;;;;5054922;28;20429;-90
2021/06/09 07:07:21;;;;;;;0.57;0.40;;;8.40;99.90;;;;;;5067255;28;20390;-89
2021/06/09 07:09:49;;;;;;;0.43;0.43;;;8.40;99.90;;;;;;5057038;28;20415;-90
2021/06/09 07:12:16;;;;;;;0.40;0.40;;;8.30;99.90;;;;;;5053074;28;20401;-89
2021/06/09 07:14:44;;;;;;;0.38;0.38;;;8.20;99.90;;;;;;5053428;28;20379;-89
2021/06/09 07:17:12;;;;;;;0.40;0.40;;;8.20;99.90;;;;;;5052981;28;20475;-88
2021/06/09 07:19:42;;;;;;;0.33;0.33;;;8.10;99.90;;;;;;5053391;28;20376;-88
2021/06/09 07:22:09;;;;;;;0.30;0.30;;;8.10;99.90;;;;;;5071903;28;20446;-88
2021/06/09 07:24:37;;;;;;;0.47;0.40;;;8.00;99.90;;;;;;5068992;28;20390;-89
2021/06/09 07:27:05;;;;;;;0.60;0.40;;;8.00;99.90;;;;;;5056208;28;20422;-85
2021/06/09 07:29:33;;;;;;;0.57;0.57;;;8.00;99.90;;;;;;5066809;28;20429;-87
2021/06/09 07:32:01;;;;;;;0.50;0.50;;;8.00;99.90;;;;;;5072194;28;20960;-87
2021/06/09 07:34:28;;;;;;;0.43;0.40;;;8.00;99.90;;;;;;5071208;28;20888;-87
2021/06/09 07:37:00;;;;;;;1.00;0.68;;;7.90;99.90;;;;;;5073191;28;20460;-87
2021/06/09 07:39:36;;;;;;;0.50;0.47;;;7.90;99.90;;;;;;5071057;28;20385;-84
2021/06/09 07:42:14;;;;;;;1.67;0.68;;;7.90;99.90;;;;;;5070277;28;20440;-88
2021/06/09 07:44:56;;;;;;;0.57;0.57;;;7.90;99.90;;;;;;5060323;28;20924;-86
2021/06/09 07:47:24;;;;;;;0.55;0.50;;;8.00;99.90;;;;;;5051479;28;20387;-90
2021/06/09 07:49:55;;;;;;;0.57;0.50;;;8.00;99.90;;;;;;5061726;28;20421;-89
2021/06/09 07:52:25;;;;;;;0.30;0.30;;;8.00;99.90;;;;;;5067960;28;20422;-90
2021/06/09 07:54:53;;;;;;;0.50;0.50;;;7.90;99.90;;;;;;5065351;28;20957;-88
2021/06/09 07:57:21;;;;;;;0.50;0.50;;;7.90;99.90;;;;;;5066611;28;20437;-90
2021/06/09 07:59:50;;;;;;;0.40;0.40;;;7.90;99.90;;;;;;5062682;28;20440;-88
2021/06/09 08:02:21;;;;;;;0.40;0.40;;;7.80;99.90;;;;;;5060498;28;20388;-88
2021/06/09 08:04:49;;;;;;;0.40;0.40;;;7.80;99.90;;;;;;5058151;28;20855;-88
2021/06/09 08:07:16;;;;;;;0.73;0.50;;;7.80;99.90;;;;;;5062650;28;20397;-87
2021/06/09 08:09:43;;;;;;;1.30;1.30;;;7.70;99.90;;;;;;5057746;28;20993;-89
2021/06/09 08:12:11;;;;;;;1.42;1.33;;;7.70;99.90;;;;;;5065551;28;20474;-88
2021/06/09 08:14:38;;;;;;;2.25;2.05;;;7.60;99.90;;;;;;5070939;28;20381;-87
2021/06/09 08:17:08;;;;;;;1.67;1.58;;;7.50;99.90;;;;;;5065148;28;20416;-87
2021/06/09 08:19:36;;;;;;;1.95;1.65;;;7.50;99.90;;;;;;5070600;28;20520;-89
2021/06/09 08:22:03;;;;;;;0.90;0.90;;;7.50;99.90;;;;;;5064697;28;20364;-87
2021/06/09 08:24:30;;;;;;;0.98;0.68;;;7.50;99.90;;;;;;5051411;28;20933;-87
2021/06/09 08:27:03;;;;;;;0.90;0.73;;;7.50;99.90;;;;;;5063454;28;20386;-90
2021/06/09 08:29:31;;;;;;;0.80;0.70;;;7.50;99.90;;;;;;5053800;28;20371;-88
2021/06/09 08:31:58;;;;;;;1.15;0.70;;;7.50;99.90;;;;;;5067992;28;20486;-89
2021/06/09 08:34:32;;;;;;;0.60;0.60;;;7.40;99.90;;;;;;5071749;28;20408;-89
2021/06/09 08:36:59;;;;;;;1.27;0.63;;;7.40;99.90;;;;;;5056146;28;20938;-86
2021/06/09 08:39:27;;;;;;;0.60;0.52;;;7.50;99.90;;;;;;5066417;28;20431;-89
2021/06/09 08:41:56;;;;;;;0.50;0.47;;;7.50;99.90;;;;;;5051885;28;20379;-88
2021/06/09 08:44:24;;;;;;;0.50;0.50;;;7.50;99.90;;;;;;5055890;28;20753;-92
2021/06/09 08:46:57;;;;;;;0.57;0.55;;;7.60;99.90;;;;;;5069793;28;20435;-87
2021/06/09 08:49:25;;;;;;;0.80;0.30;;;7.50;99.90;;;;;;5065335;28;20492;-87
2021/06/09 08:51:54;;;;;;;1.33;0.50;;;7.50;99.90;;;;;;5070170;28;20380;-87
2021/06/09 08:54:23;;;;;;;0.40;0.40;;;7.50;99.90;;;;;;5071556;28;20474;-87
2021/06/09 08:56:52;;;;;;;0.60;0.30;;;7.40;99.90;;;;;;5066776;28;20446;-86
2021/06/09 08:59:22;;;;;;;0.50;0.30;;;7.50;99.90;;;;;;5050662;28;20391;-88
2021/06/09 09:01:50;;;;;;;0.40;0.40;;;7.50;99.90;;;;;;5049740;28;20715;-88
2021/06/09 09:04:18;;;;;;;0.40;0.30;;;7.50;99.90;;;;;;5060351;28;20880;-89
2021/06/09 09:06:45;;;;;;;0.50;0.37;;;7.50;99.90;;;;;;5064138;28;20393;-89
2021/06/09 09:09:13;;;;;;;0.30;0.30;;;7.40;99.90;;;;;;5062826;28;20392;-89
2021/06/09 09:11:40;;;;;;;0.50;0.30;;;7.40;99.90;;;;;;5068367;28;20513;-89
2021/06/09 09:14:07;;;;;;;1.15;0.20;;;7.40;99.90;;;;;;5067027;28;20406;-88
2021/06/09 09:16:34;;;;;;;0.38;0.20;;;7.40;99.90;;;;;;5062549;28;20406;-90
2021/06/09 09:19:02;;;;;;;1.10;0.30;;;7.30;99.90;;;;;;5058892;28;20482;-89
2021/06/09 09:21:41;;;;;;;1.20;0.20;;;7.30;99.90;;;;;;5069749;28;20411;-88
2021/06/09 09:24:10;;;;;;;0.25;0.25;;;7.30;99.90;;;;;;5060772;28;20380;-88
2021/06/09 09:26:39;;;;;;;0.60;0.60;;;7.30;99.90;;;;;;5057238;28;20794;-87
2021/06/09 09:29:09;;;;;;;1.50;0.70;;;7.30;99.90;;;;;;5062203;28;20407;-88
2021/06/09 09:32:07;;;;;;;1.10;0.93;;;7.30;99.90;;;;;;5058239;28;20529;-89
2021/06/09 09:34:40;;;;;;;0.63;0.63;;;7.20;99.90;;;;;;5054360;28;20398;-88
2021/06/09 09:37:11;;;;;;;0.60;0.60;;;7.30;99.90;;;;;;5055951;28;20436;-90
2021/06/09 09:39:40;;;;;;;0.55;0.50;;;7.30;99.90;;;;;;5065506;28;20398;-88
2021/06/09 09:42:33;;;;;;;0.50;0.50;;;7.30;99.90;;;;;;5057388;28;20446;-88
2021/06/09 09:45:23;;;;;;;0.70;0.40;;;7.30;99.90;;;;;;5056331;28;20418;-88
2021/06/09 09:48:19;;;;;;;1.50;1.40;;;7.30;99.90;;;;;;5063058;28;20390;-89
2021/06/09 09:50:51;;;;;;;0.30;0.30;;;7.30;99.90;;;;;;5055663;28;20409;-88
2021/06/09 09:53:22;;;;;;;0.30;0.30;;;7.30;99.90;;;;;;5062360;28;20482;-87
2021/06/09 09:56:11;;;;;;;2.17;2.08;;;7.30;99.90;;;;;;5068459;28;20405;-89
2021/06/09 09:59:06;;;;;;;0.30;0.30;;;7.20;99.90;;;;;;5068397;28;20441;-86
2021/06/09 10:01:34;;;;;;;0.40;0.20;;;7.20;99.90;;;;;;5061822;28;20471;-87
2021/06/09 10:04:04;;;;;;;0.30;0.30;;;7.20;99.90;;;;;;5061291;28;20440;-87
2021/06/09 10:06:47;;;;;;;0.30;0.30;;;7.20;99.90;;;;;;5063318;28;20386;-88
2021/06/09 10:09:20;;;;;;;0.40;0.40;;;7.10;99.90;;;;;;5055491;28;20386;-87
2021/06/09 10:11:49;;;;;;;0.30;0.30;;;7.10;99.90;;;;;;5064274;28;20459;-87
2021/06/09 10:14:20;;;;;;;0.25;0.25;;;7.10;99.90;;;;;;5060887;28;20421;-86
2021/06/09 10:16:55;;;;;;;0.25;0.25;;;7.10;99.90;;;;;;5060475;28;20413;-88
2021/06/09 10:19:22;;;;;;;0.20;0.20;;;7.10;99.90;;;;;;5063059;28;20927;-88
2021/06/09 10:21:56;;;;;;;0.80;0.30;;;7.00;99.90;;;;;;5063904;28;20398;-87
2021/06/09 10:24:26;;;;;;;2.40;1.58;;;7.10;99.90;;;;;;5049876;28;20919;-88
2021/06/09 10:26:59;;;;;;;0.40;0.30;;;7.10;99.90;;;;;;5060703;28;20382;-87
2021/06/09 10:29:29;;;;;;;0.32;0.30;;;7.10;99.90;;;;;;5046044;28;20434;-88
2021/06/09 10:32:00;;;;;;;0.25;0.25;;;7.10;99.90;;;;;;5051292;28;20383;-88
2021/06/09 10:34:32;;;;;;;0.60;0.60;;;7.10;99.90;;;;;;5061864;28;20441;-89
2021/06/09 10:37:01;;;;;;;0.82;0.82;;;7.10;99.90;;;;;;5065354;28;20479;-90
2021/06/09 10:39:34;;;;;;;0.20;0.20;;;7.10;99.90;;;;;;5059937;28;20417;-87
2021/06/09 10:42:07;;;;;;;0.20;0.20;;;7.10;99.90;;;;;;5054975;28;20446;-89
2021/06/09 10:44:40;;;;;;;0.40;0.20;;;7.20;99.90;;;;;;5046075;28;20372;-87
2021/06/09 10:47:17;;;;;;;0.20;0.20;;;7.10;99.90;;;;;;5059700;28;20494;-87
2021/06/09 10:49:45;;;;;;;1.10;0.10;;;7.00;99.90;;;;;;5058091;28;20401;-88
2021/06/09 10:52:13;;;;;;;0.20;0.20;;;6.90;99.90;;;;;;5064134;28;20400;-88
2021/06/09 10:54:41;;;;;;;0.30;0.30;;;6.90;99.90;;;;;;5063977;28;20386;-83
2021/06/09 10:57:09;;;;;;;0.68;0.30;;;6.90;99.90;;;;;;5051265;28;20405;-87
2021/06/09 10:59:36;;;;;;;0.30;0.30;;;6.90;99.90;;;;;;5054556;28;20412;-88
2021/06/09 11:02:20;;;;;;;0.20;0.20;;;6.80;99.90;;;;;;5058724;28;20428;-90
2021/06/09 11:04:49;;;;;;;0.40;0.20;;;6.80;99.90;;;;;;5060153;28;20443;-89
2021/06/09 11:07:40;;;;;;;0.10;0.10;;;6.80;99.90;;;;;;5065114;28;20416;-81
2021/06/09 11:10:14;;;;;;;1.52;0.32;;;6.70;99.90;;;;;;5063703;28;20392;-90
2021/06/09 11:12:44;;;;;;;0.20;0.20;;;6.70;99.90;;;;;;5053052;28;20403;-89
2021/06/09 11:15:14;;;;;;;0.30;0.30;;;6.70;99.90;;;;;;5057761;28;20374;-88
2021/06/09 11:17:52;;;;;;;0.43;0.43;;;6.70;99.90;;;;;;5065769;28;20904;-90
2021/06/09 11:20:34;;;;;;;0.40;0.40;;;6.70;99.90;;;;;;5065517;28;20385;-88
2021/06/09 11:23:25;;;;;;;0.75;0.52;;;6.60;99.90;;;;;;5057772;28;20393;-85
2021/06/09 11:25:52;;;;;;;0.38;0.30;;;6.60;99.90;;;;;;5064533;28;20386;-89
2021/06/09 11:28:32;;;;;;;0.50;0.32;;;6.50;99.90;;;;;;5071516;28;20394;-89
2021/06/09 11:31:04;;;;;;;0.52;0.50;;;6.60;99.90;;;;;;5068378;28;20467;-89
2021/06/09 11:33:56;;;;;;;0.28;0.28;;;6.60;99.90;;;;;;5070411;28;20408;-86
2021/06/09 11:36:23;;;;;;;0.45;0.45;;;6.50;99.90;;;;;;5051350;28;20403;-88
2021/06/09 11:38:52;;;;;;;0.35;0.35;;;6.50;99.90;;;;;;5061483;28;20401;-88
2021/06/09 11:41:39;;;;;;;0.40;0.40;;;6.50;99.90;;;;;;5059221;28;20386;-90
2021/06/09 11:44:23;;;;;;;0.50;0.30;;;6.60;99.90;;;;;;5057709;28;20395;-88
2021/06/09 11:46:50;;;;;;;2.87;1.87;;;6.50;99.90;;;;;;5055081;28;20398;-92
2021/06/09 11:49:25;;;;;;;0.32;0.32;;;6.50;99.90;;;;;;5066114;28;20689;-91
2021/06/09 11:52:01;;;;;;;0.47;0.47;;;6.50;99.90;;;;;;5071569;28;20386;-89
2021/06/09 11:54:32;;;;;;;1.90;0.30;;;6.50;99.90;;;;;;5069557;28;20409;-89
2021/06/09 11:57:07;;;;;;;0.37;0.30;;;6.50;99.90;;;;;;5063073;28;20894;-87
2021/06/09 11:59:36;;;;;;;0.13;0.13;;;6.50;99.90;;;;;;5055974;28;20418;-89
2021/06/09 12:02:09;;;;;;;0.13;0.10;;;6.50;99.90;;;;;;5054506;28;21927;-89
2021/06/09 12:04:53;;;;;;;0.35;0.20;;;6.50;99.90;;;;;;5067092;28;20382;-89
2021/06/09 12:07:21;;;;;;;0.20;0.10;;;6.40;99.90;;;;;;5072369;28;20402;-89
2021/06/09 12:09:50;;;;;;;0.50;0.20;;;6.40;99.90;;;;;;5068626;28;20901;-88
2021/06/09 12:12:21;;;;;;;0.30;0.10;;;6.40;99.90;;;;;;5066209;28;20419;-90
2021/06/09 12:14:50;;;;;;;0.30;0.30;;;6.40;99.90;;;;;;5052140;28;20882;-88
2021/06/09 12:17:26;;;;;;;0.68;0.20;;;6.40;99.90;;;;;;5068441;28;20442;-88
2021/06/09 12:20:02;;;;;;;0.30;0.30;;;6.40;99.90;;;;;;5069593;28;20439;-88
2021/06/09 12:22:32;;;;;;;0.20;0.20;;;6.40;99.90;;;;;;5066396;28;20771;-90
2021/06/09 12:25:23;;;;;;;0.30;0.20;;;6.40;99.90;;;;;;5060287;28;20797;-90
2021/06/09 12:28:10;;;;;;;0.20;0.20;;;6.30;99.90;;;;;;5062322;28;20409;-88
2021/06/09 12:30:55;;;;;;;0.20;0.20;;;6.30;99.90;;;;;;5063124;28;20890;-88
2021/06/09 12:33:37;;;;;;;1.23;0.30;;;6.30;99.90;;;;;;5066750;28;21110;-88
2021/06/09 12:36:09;;;;;;;0.45;0.30;;;6.20;99.90;;;;;;5068027;28;20409;-87
2021/06/09 12:38:38;;;;;;;0.30;0.20;;;6.20;99.90;;;;;;5061803;28;20415;-88
2021/06/09 12:41:09;;;;;;;0.30;0.30;;;6.20;99.90;;;;;;5065347;28;20393;-87
2021/06/09 12:43:40;;;;;;;0.33;0.33;;;6.20;99.90;;;;;;5055877;28;20479;-90
2021/06/09 12:46:07;;;;;;;0.30;0.30;;;6.20;99.90;;;;;;5058737;28;20381;-88
2021/06/09 12:48:38;;;;;;;0.20;0.20;;;6.30;99.90;;;;;;5066655;28;20444;-87
2021/06/09 12:51:06;;;;;;;0.50;0.38;;;6.30;99.90;;;;;;5058177;28;20396;-88
2021/06/09 12:53:34;;;;;;;0.50;0.50;;;6.30;99.90;;;;;;5057875;28;20394;-88
2021/06/09 12:56:08;;;;;;;23.33;14.25;;;6.30;99.90;;;;;;5054543;28;20796;-89
2021/06/09 12:58:37;;;;;;;1.02;0.93;;;6.20;99.90;;;;;;5057737;28;21049;-89
2021/06/09 13:01:06;;;;;;;0.50;0.40;;;6.20;99.90;;;;;;5066098;28;20390;-89
2021/06/09 13:03:35;;;;;;;0.85;0.85;;;6.20;99.90;;;;;;5055986;28;20397;-90
2021/06/09 13:06:20;;;;;;;0.88;0.88;;;6.20;99.90;;;;;;5061654;28;20421;-90
2021/06/09 13:08:52;;;;;;;0.40;0.40;;;6.30;99.90;;;;;;5058399;28;20765;-88
2021/06/09 13:11:34;;;;;;;0.60;0.40;;;6.30;99.90;;;;;;5059959;28;20380;-88
2021/06/09 13:14:06;;;;;;;0.30;0.30;;;6.30;99.90;;;;;;5054712;28;20865;-88
2021/06/09 13:16:43;;;;;;;1.00;0.30;;;6.30;99.90;;;;;;5066182;28;20794;-90